Hicks Air Field

KT67 · 德克萨斯州, 美国

罗盘
风向 的 Hicks Air Field 14/32
风: 0 kt, 0 beaufort


改变
0 1.000 2.000 3.000 4.000 5.000
没有云
METAR KAFW 030653Z 00000KT 10SM CLR 18/08 A3015 RMK AO2 SLP199 T01780078

METAR Hicks Air Field - KT67

Hicks Air Field是Fort Worth,美国中的小机场。 该机场有一条跑道: 14/32. 该领域的国际民航组织标志是KT67.

这份报告是针对2022年10月3日 01:53, 当地时间在Fort Worth Alliance Airport进行的。

机场观察

可变方向的风很小或没有风。

可见度为10 mi。

有没有云。 没有观察到天花板。

温度和风寒是18 °C。 露点为8 °C,相对湿度为52%。 海平面上的气压为30,15 inHg (QNH)。

白天

今天,太阳从07:25升起,在19:11降落。 这适用于Hicks Air Field,世界夏令时可能有所不同。 当地时间与世界标准时间之间的时差为-5 小时。 夏令时目前正在进行中。

公司介绍

在这个机场,你可以找到飞行学校。 这个机场上的公司有Pro Aircraft Flight Training 和 Jimmys Pilot Service。

体会

到Vliegles.nl去找飞行课程,跳伞和其他飞行体验。 浏览页面,了解Hicks Air Field附近所有可用的活动。 你也可以使用搜索功能来寻找你所在地附近的特定飞行课程、跳伞或其他飞行体验。

跑道

Id 标题 侧风 逆风 侧风 %
14/32 141°-321°

逆风成分最大的方向会被突出显示,并用于横风计算。 这并不一定意味着这个方向在使用。

乌云

- CLR 没有云

温度 & 天气

温度 17,8 °C
露点 7,8 °C
相对湿度 52%
Kp-index 2 (0-9)

评论

AO2自动气象站,可确定降水类型
SLP199海平面压力为30,12 inHg (30,12 inHg)
T01780078温度为17,8 °C (64,0 °F),露点为7,8 °C (46,0 °F)

白天

日出
07:25 (4h 47m)
中午
13:18
日落
19:11

小工具

你想在你的网站上有一个关于Hicks Air Field的当前航空天气(METAR)的小部件吗?

</> 显示HTML代码

我们和第三方通过cookies跟踪您在我们网站上的上网行为。如果您继续,我们认为您同意我们的cookie政策。 了解更多